createdAt,value
2018-09-12T00:01:57.855Z,19.90
2018-09-12T00:04:26.976Z,20.00
2018-09-12T00:06:56.111Z,20.00
2018-09-12T00:09:25.164Z,20.00
2018-09-12T00:11:54.355Z,20.00
2018-09-12T00:14:23.444Z,20.00
2018-09-12T00:16:52.463Z,19.90
2018-09-12T00:19:21.460Z,19.80
2018-09-12T00:21:50.459Z,19.60
2018-09-12T00:24:19.452Z,19.50
2018-09-12T00:26:48.537Z,19.60
2018-09-12T00:29:17.614Z,19.60
2018-09-12T00:31:48.178Z,19.60
2018-09-12T00:34:17.219Z,19.40
2018-09-12T00:36:46.234Z,19.40
2018-09-12T00:39:15.247Z,19.20
2018-09-12T00:41:44.222Z,19.20
2018-09-12T00:44:13.327Z,19.10
2018-09-12T00:46:42.295Z,19.00
2018-09-12T00:49:11.569Z,19.00
2018-09-12T00:51:40.989Z,18.90
2018-09-12T00:54:10.259Z,18.80
2018-09-12T00:56:39.301Z,18.70
2018-09-12T00:59:08.296Z,18.70
2018-09-12T01:01:37.279Z,18.60
2018-09-12T01:04:06.373Z,18.50
2018-09-12T01:06:35.459Z,18.40
2018-09-12T01:09:05.455Z,18.50
2018-09-12T01:11:34.588Z,18.50
2018-09-12T01:14:03.700Z,18.40
2018-09-12T01:16:34.190Z,18.30
2018-09-12T01:19:03.505Z,18.20
2018-09-12T01:21:32.591Z,18.10
2018-09-12T01:24:01.671Z,18.00
2018-09-12T01:26:30.697Z,17.90
2018-09-12T01:28:59.658Z,17.80
2018-09-12T01:31:28.627Z,17.70
2018-09-12T01:33:57.663Z,17.80
2018-09-12T01:36:26.761Z,17.90
2018-09-12T01:38:56.080Z,17.80
2018-09-12T01:41:25.275Z,17.80
2018-09-12T01:43:54.261Z,17.60
2018-09-12T01:46:23.336Z,17.60
2018-09-12T01:48:52.456Z,17.50
2018-09-12T01:51:21.556Z,17.40
2018-09-12T01:53:50.623Z,17.20
2018-09-12T01:56:19.745Z,17.20
2018-09-12T01:58:48.824Z,17.10
2018-09-12T02:01:17.931Z,17.00
2018-09-12T02:03:47.137Z,16.90
2018-09-12T02:06:16.095Z,16.80
2018-09-12T02:08:45.092Z,16.70
2018-09-12T02:11:14.184Z,16.70
2018-09-12T02:13:43.287Z,16.70
2018-09-12T02:16:12.383Z,16.70
2018-09-12T02:18:41.476Z,16.60
2018-09-12T02:21:10.567Z,16.60
2018-09-12T02:23:39.754Z,16.50
2018-09-12T02:26:08.964Z,16.50
2018-09-12T02:28:38.052Z,16.50
2018-09-12T02:31:07.475Z,16.40
2018-09-12T02:33:36.497Z,16.50
2018-09-12T02:36:10.692Z,16.60
2018-09-12T02:38:39.798Z,16.60
2018-09-12T02:41:08.777Z,16.50
2018-09-12T02:43:37.778Z,16.50
2018-09-12T02:46:07.073Z,16.60
2018-09-12T02:48:36.269Z,16.60
2018-09-12T02:51:05.468Z,16.60
2018-09-12T02:53:34.568Z,16.60
2018-09-12T02:56:03.673Z,16.50
2018-09-12T02:58:32.621Z,16.50
2018-09-12T03:01:01.738Z,16.40
2018-09-12T03:03:30.912Z,16.40
2018-09-12T03:06:00.236Z,16.40
2018-09-12T03:08:29.249Z,16.40
2018-09-12T03:10:58.329Z,16.30
2018-09-12T03:13:27.322Z,16.20
2018-09-12T03:15:56.532Z,16.20
2018-09-12T03:18:25.543Z,16.20
2018-09-12T03:20:54.654Z,16.10
2018-09-12T03:23:23.596Z,16.10
2018-09-12T03:25:52.577Z,16.10
2018-09-12T03:28:21.537Z,16.10
2018-09-12T03:30:50.778Z,16.00
2018-09-12T03:33:19.778Z,15.90
2018-09-12T03:35:49.084Z,15.90
2018-09-12T03:38:18.285Z,15.90
2018-09-12T03:40:47.525Z,15.90
2018-09-12T03:43:16.547Z,15.80
2018-09-12T03:45:45.698Z,15.80
2018-09-12T03:48:14.809Z,15.80
2018-09-12T03:50:43.828Z,15.80
2018-09-12T03:53:12.833Z,15.80
2018-09-12T03:55:41.833Z,15.90
2018-09-12T03:58:10.849Z,15.80
2018-09-12T04:00:40.025Z,15.80
2018-09-12T04:03:09.097Z,15.80
2018-09-12T04:05:38.079Z,15.70
2018-09-12T04:08:07.265Z,15.70
2018-09-12T04:10:36.172Z,15.60
2018-09-12T04:13:05.296Z,15.50
2018-09-12T04:15:34.399Z,15.70
2018-09-12T04:18:03.427Z,15.80
2018-09-12T04:20:32.616Z,15.90
2018-09-12T04:23:01.786Z,15.90
2018-09-12T04:25:30.959Z,15.80
2018-09-12T04:28:00.037Z,15.90
2018-09-12T04:30:29.132Z,16.00
2018-09-12T04:32:58.226Z,15.90
2018-09-12T04:35:27.363Z,15.90
2018-09-12T04:37:56.420Z,16.00
2018-09-12T04:40:25.505Z,15.80
2018-09-12T04:42:54.591Z,15.70
2018-09-12T04:45:23.581Z,15.70
2018-09-12T04:47:52.599Z,15.60
2018-09-12T04:50:21.630Z,15.80
2018-09-12T04:52:50.561Z,15.90
2018-09-12T04:55:19.652Z,15.80
2018-09-12T04:57:48.672Z,15.90
2018-09-12T05:00:17.815Z,15.80
2018-09-12T05:02:46.852Z,15.80
2018-09-12T05:05:15.972Z,15.70
2018-09-12T05:07:45.051Z,15.80
2018-09-12T05:10:14.096Z,15.70
2018-09-12T05:12:43.261Z,15.60
2018-09-12T05:15:12.632Z,15.70
2018-09-12T05:17:41.853Z,15.60
2018-09-12T05:20:10.841Z,15.80
2018-09-12T05:22:39.812Z,15.90
2018-09-12T05:25:08.899Z,15.90
2018-09-12T05:27:38.001Z,16.00
2018-09-12T05:30:07.512Z,16.10
2018-09-12T05:32:36.512Z,16.10
2018-09-12T05:35:05.683Z,16.10
2018-09-12T05:37:34.913Z,16.10
2018-09-12T05:40:04.447Z,16.10
2018-09-12T05:42:33.611Z,16.10
2018-09-12T05:45:02.695Z,16.10
2018-09-12T05:47:31.937Z,16.10
2018-09-12T05:50:00.914Z,15.90
2018-09-12T05:52:29.976Z,15.90
2018-09-12T05:54:59.073Z,15.90
2018-09-12T05:57:28.057Z,15.80
2018-09-12T05:59:57.185Z,15.80
2018-09-12T06:02:26.296Z,15.70
2018-09-12T06:04:55.575Z,15.70
2018-09-12T06:07:24.646Z,15.70
2018-09-12T06:09:53.758Z,15.80
2018-09-12T06:12:23.001Z,15.70
2018-09-12T06:14:52.169Z,15.70
2018-09-12T06:17:21.125Z,15.70
2018-09-12T06:19:50.329Z,15.60
2018-09-12T06:22:19.421Z,15.60
2018-09-12T06:24:48.661Z,15.60
2018-09-12T06:27:17.774Z,15.60
2018-09-12T06:29:46.921Z,15.60
2018-09-12T06:32:16.100Z,15.60
2018-09-12T06:34:45.318Z,15.60
2018-09-12T06:37:14.526Z,15.70
2018-09-12T06:39:43.777Z,15.70
2018-09-12T06:42:12.894Z,15.80
2018-09-12T06:44:41.982Z,15.80
2018-09-12T06:47:11.007Z,15.70
2018-09-12T06:49:40.099Z,15.70
2018-09-12T06:52:09.386Z,15.80
2018-09-12T06:54:38.536Z,15.80
2018-09-12T06:57:07.585Z,15.90
2018-09-12T06:59:36.668Z,15.90
2018-09-12T07:02:05.674Z,15.90
2018-09-12T07:04:34.755Z,16.10
2018-09-12T07:07:03.919Z,16.10
2018-09-12T07:09:33.044Z,16.20
2018-09-12T07:12:02.404Z,16.20
2018-09-12T07:14:31.755Z,16.30
2018-09-12T07:17:00.965Z,16.40
2018-09-12T07:19:29.934Z,16.40
2018-09-12T07:21:58.937Z,16.50
2018-09-12T07:24:27.944Z,16.50
2018-09-12T07:26:57.054Z,16.60
2018-09-12T07:29:26.399Z,16.70
2018-09-12T07:31:55.414Z,16.70
2018-09-12T07:34:24.812Z,16.70
2018-09-12T07:36:53.787Z,16.80
2018-09-12T07:39:22.890Z,16.80
2018-09-12T07:41:52.043Z,16.90
2018-09-12T07:44:21.208Z,16.90
2018-09-12T07:46:50.242Z,17.00
2018-09-12T07:49:19.271Z,17.10
2018-09-12T07:51:48.268Z,17.10
2018-09-12T07:54:17.385Z,17.20
2018-09-12T07:56:46.467Z,17.20
2018-09-12T07:59:15.664Z,17.30
2018-09-12T08:01:44.773Z,17.30
2018-09-12T08:04:13.852Z,17.30
2018-09-12T08:06:42.964Z,17.40
2018-09-12T08:09:13.236Z,17.40
2018-09-12T08:11:42.784Z,17.50
2018-09-12T08:14:12.119Z,17.60
2018-09-12T08:16:41.239Z,17.60
2018-09-12T08:19:10.314Z,17.60
2018-09-12T08:21:39.557Z,17.70
2018-09-12T08:24:08.536Z,17.80
2018-09-12T08:26:37.797Z,17.90
2018-09-12T08:29:06.835Z,17.90
2018-09-12T08:31:35.947Z,18.00
2018-09-12T08:34:05.050Z,18.00
2018-09-12T08:36:34.276Z,18.10
2018-09-12T08:39:03.496Z,18.10
2018-09-12T08:41:32.605Z,18.20
2018-09-12T08:44:01.727Z,18.20
2018-09-12T08:46:30.777Z,18.30
2018-09-12T08:49:00.102Z,18.30
2018-09-12T08:51:29.211Z,18.40
2018-09-12T08:53:58.279Z,18.40
2018-09-12T08:56:27.516Z,18.50
2018-09-12T08:58:56.696Z,18.50
2018-09-12T09:01:25.846Z,18.60
2018-09-12T09:03:54.886Z,18.70
2018-09-12T09:06:23.863Z,18.70
2018-09-12T09:08:53.062Z,18.70
2018-09-12T09:11:22.178Z,18.80
2018-09-12T09:13:51.428Z,18.90
2018-09-12T09:16:20.556Z,18.90
2018-09-12T09:18:49.657Z,19.00
2018-09-12T09:21:18.876Z,19.00
2018-09-12T09:23:48.082Z,19.00
2018-09-12T09:26:17.261Z,19.10
2018-09-12T09:28:46.437Z,19.20
2018-09-12T09:31:15.547Z,19.20
2018-09-12T09:33:44.647Z,19.30
2018-09-12T09:36:13.704Z,19.40
2018-09-12T09:38:42.823Z,19.40
2018-09-12T09:41:11.922Z,19.50
2018-09-12T09:43:41.113Z,19.50
2018-09-12T09:46:10.228Z,19.60
2018-09-12T09:48:39.713Z,19.70
2018-09-12T09:51:08.804Z,19.80
2018-09-12T09:53:37.963Z,19.80
2018-09-12T09:56:07.200Z,19.90
2018-09-12T09:58:36.479Z,20.00
2018-09-12T10:01:10.874Z,20.10
2018-09-12T10:03:41.842Z,20.10
2018-09-12T10:06:15.925Z,20.20
2018-09-12T10:08:50.170Z,20.30
2018-09-12T10:11:19.393Z,20.30
2018-09-12T10:13:48.678Z,20.30
2018-09-12T10:16:17.797Z,20.40
2018-09-12T10:18:46.757Z,20.50
2018-09-12T10:21:16.189Z,20.60
2018-09-12T10:23:45.265Z,20.70
2018-09-12T10:26:14.288Z,20.80
2018-09-12T10:28:43.432Z,21.00
2018-09-12T10:31:12.675Z,21.00
2018-09-12T10:33:41.767Z,21.10
2018-09-12T10:36:11.260Z,21.20
2018-09-12T10:38:40.348Z,21.40
2018-09-12T10:41:09.500Z,21.40
2018-09-12T10:43:38.558Z,21.70
2018-09-12T10:46:07.760Z,21.70
2018-09-12T10:48:36.830Z,21.80
2018-09-12T10:51:05.824Z,21.80
2018-09-12T10:53:34.917Z,21.90
2018-09-12T10:56:04.002Z,22.00
2018-09-12T10:58:32.862Z,22.10
2018-09-12T11:01:02.000Z,22.20
2018-09-12T11:03:31.178Z,22.30
2018-09-12T11:06:00.177Z,22.40
2018-09-12T11:08:29.363Z,22.50
2018-09-12T11:10:58.577Z,22.70
2018-09-12T11:13:27.634Z,22.80
2018-09-12T11:15:56.770Z,22.90
2018-09-12T11:18:25.747Z,23.00
2018-09-12T11:20:54.809Z,23.10
2018-09-12T11:23:23.925Z,23.20
2018-09-12T11:25:52.924Z,23.30
2018-09-12T11:28:22.131Z,23.40
2018-09-12T11:30:51.386Z,23.60
2018-09-12T11:33:20.528Z,23.70
2018-09-12T11:35:49.536Z,23.90
2018-09-12T11:38:17.659Z,23.90
2018-09-12T11:40:46.178Z,24.10
2018-09-12T11:43:14.271Z,24.30
2018-09-12T11:45:43.416Z,24.40
2018-09-12T11:48:12.542Z,24.50
2018-09-12T11:50:41.665Z,24.60
2018-09-12T11:53:10.868Z,24.70
2018-09-12T11:55:39.939Z,24.80
2018-09-12T11:58:08.270Z,25.00
2018-09-12T12:00:36.335Z,25.00
2018-09-12T12:03:04.465Z,25.20
2018-09-12T12:05:33.635Z,25.30
2018-09-12T12:08:01.779Z,25.40
2018-09-12T12:10:29.832Z,25.50
2018-09-12T12:12:57.917Z,25.60
2018-09-12T12:15:26.089Z,25.80
2018-09-12T12:17:54.263Z,25.90
2018-09-12T12:20:22.324Z,26.00
2018-09-12T12:22:50.384Z,26.10
2018-09-12T12:25:18.581Z,26.20
2018-09-12T12:27:46.752Z,26.30
2018-09-12T12:30:15.011Z,26.40
2018-09-12T12:32:43.080Z,26.60
2018-09-12T12:35:11.276Z,26.70
2018-09-12T12:37:39.339Z,26.80
2018-09-12T12:40:07.619Z,26.90
2018-09-12T12:42:35.668Z,27.00
2018-09-12T12:45:04.565Z,27.10
2018-09-12T12:47:33.632Z,27.20
2018-09-12T12:50:02.715Z,27.30
2018-09-12T12:52:31.724Z,27.40
2018-09-12T12:55:00.868Z,27.50
2018-09-12T12:57:30.002Z,27.60
2018-09-12T12:59:59.202Z,27.70
2018-09-12T13:02:28.490Z,27.80
2018-09-12T13:04:57.600Z,27.90
2018-09-12T13:07:26.696Z,28.00
2018-09-12T13:09:55.910Z,28.10
2018-09-12T13:12:25.013Z,28.20
2018-09-12T13:14:54.170Z,28.30
2018-09-12T13:17:23.273Z,28.30
2018-09-12T13:19:52.388Z,28.40
2018-09-12T13:22:21.468Z,28.50
2018-09-12T13:24:50.568Z,28.60
2018-09-12T13:27:19.647Z,28.70
2018-09-12T13:29:48.733Z,28.80
2018-09-12T13:32:17.730Z,28.90
2018-09-12T13:34:46.748Z,29.00
2018-09-12T13:37:15.939Z,29.10
2018-09-12T13:39:45.027Z,29.10
2018-09-12T13:42:14.121Z,29.20
2018-09-12T13:44:43.265Z,29.20
2018-09-12T13:47:12.517Z,29.30
2018-09-12T13:49:41.519Z,29.40
2018-09-12T13:52:10.488Z,29.40
2018-09-12T13:54:39.502Z,29.50
2018-09-12T13:57:08.481Z,29.60
2018-09-12T13:59:37.566Z,29.60
2018-09-12T14:02:06.679Z,29.70
2018-09-12T14:04:35.747Z,29.70
2018-09-12T14:07:05.181Z,29.80
2018-09-12T14:09:34.351Z,29.90
2018-09-12T14:12:03.860Z,29.90
2018-09-12T14:14:32.987Z,29.90
2018-09-12T14:17:02.047Z,30.00
2018-09-12T14:19:31.179Z,30.10
2018-09-12T14:22:00.240Z,30.10
2018-09-12T14:24:29.225Z,30.20
2018-09-12T14:26:58.243Z,30.20
2018-09-12T14:29:27.222Z,30.30
2018-09-12T14:31:56.294Z,30.30
2018-09-12T14:34:25.417Z,30.40
2018-09-12T14:36:54.603Z,30.40
2018-09-12T14:39:23.700Z,30.40
2018-09-12T14:41:52.743Z,30.50
2018-09-12T14:44:22.008Z,30.50
2018-09-12T14:46:51.176Z,30.60
2018-09-12T14:49:20.269Z,30.60
2018-09-12T14:51:49.387Z,30.50
2018-09-12T14:54:18.461Z,30.60
2018-09-12T14:56:47.485Z,30.60
2018-09-12T14:59:16.584Z,30.60
2018-09-12T15:01:45.559Z,30.70
2018-09-12T15:04:14.564Z,30.70
2018-09-12T15:06:43.545Z,30.70
2018-09-12T15:09:12.800Z,30.80
2018-09-12T15:11:41.816Z,30.70
2018-09-12T15:14:11.082Z,30.70
2018-09-12T15:16:40.167Z,30.80
2018-09-12T15:19:09.200Z,30.80
2018-09-12T15:21:38.317Z,30.80
2018-09-12T15:24:07.810Z,30.80
2018-09-12T15:26:36.803Z,30.80
2018-09-12T15:29:05.926Z,30.80
2018-09-12T15:31:34.998Z,30.80
2018-09-12T15:34:04.066Z,30.70
2018-09-12T15:36:33.013Z,30.80
2018-09-12T15:39:02.254Z,30.70
2018-09-12T15:41:31.478Z,30.70
2018-09-12T15:44:00.554Z,30.60
2018-09-12T15:46:29.760Z,30.60
2018-09-12T15:48:58.865Z,30.60
2018-09-12T15:51:27.867Z,30.60
2018-09-12T15:53:56.855Z,30.60
2018-09-12T15:56:25.996Z,30.50
2018-09-12T15:58:55.199Z,30.50
2018-09-12T16:01:24.252Z,30.40
2018-09-12T16:03:53.266Z,30.40
2018-09-12T16:06:22.466Z,30.40
2018-09-12T16:08:51.528Z,30.30
2018-09-12T16:11:20.513Z,30.30
2018-09-12T16:13:49.828Z,30.20
2018-09-12T16:16:18.968Z,30.20
2018-09-12T16:18:48.052Z,30.10
2018-09-12T16:21:17.265Z,30.10
2018-09-12T16:23:46.280Z,30.00
2018-09-12T16:26:15.291Z,29.90
2018-09-12T16:28:44.377Z,29.80
2018-09-12T16:31:13.513Z,29.70
2018-09-12T16:33:42.793Z,29.70
2018-09-12T16:36:11.868Z,29.70
2018-09-12T16:38:40.959Z,29.60
2018-09-12T16:41:10.039Z,29.50
2018-09-12T16:43:39.169Z,29.50
2018-09-12T16:46:08.549Z,29.40
2018-09-12T16:48:37.690Z,29.30
2018-09-12T16:51:06.949Z,29.20
2018-09-12T16:53:35.947Z,29.10
2018-09-12T16:56:05.059Z,29.00
2018-09-12T16:58:34.139Z,29.00
2018-09-12T17:01:03.240Z,28.90
2018-09-12T17:03:32.321Z,28.80
2018-09-12T17:06:01.421Z,28.70
2018-09-12T17:08:30.509Z,28.60
2018-09-12T17:10:59.714Z,28.50
2018-09-12T17:13:28.840Z,28.50
2018-09-12T17:15:57.883Z,28.40
2018-09-12T17:18:26.989Z,28.40
2018-09-12T17:20:56.088Z,28.30
2018-09-12T17:23:25.160Z,28.30
2018-09-12T17:25:54.301Z,28.20
2018-09-12T17:28:23.372Z,28.20
2018-09-12T17:30:52.468Z,28.10
2018-09-12T17:33:21.449Z,28.10
2018-09-12T17:35:50.451Z,28.00
2018-09-12T17:38:19.590Z,28.00
2018-09-12T17:40:48.762Z,27.90
2018-09-12T17:43:18.110Z,27.90
2018-09-12T17:45:47.235Z,27.80
2018-09-12T17:48:16.328Z,27.70
2018-09-12T17:50:45.447Z,27.70
2018-09-12T17:53:14.611Z,27.60
2018-09-12T17:55:43.889Z,27.60
2018-09-12T17:58:12.921Z,27.40
2018-09-12T18:00:42.192Z,27.40
2018-09-12T18:03:11.339Z,27.30
2018-09-12T18:05:40.507Z,27.30
2018-09-12T18:08:09.615Z,27.20
2018-09-12T18:10:38.709Z,27.10
2018-09-12T18:13:07.792Z,27.10
2018-09-12T18:15:37.105Z,27.00
2018-09-12T18:18:06.408Z,27.00
2018-09-12T18:20:35.396Z,27.00
2018-09-12T18:23:04.499Z,26.90
2018-09-12T18:25:33.483Z,26.90
2018-09-12T18:28:02.531Z,26.80
2018-09-12T18:30:31.794Z,26.80
2018-09-12T18:33:00.758Z,26.70
2018-09-12T18:35:30.001Z,26.70
2018-09-12T18:37:59.153Z,26.60
2018-09-12T18:40:28.215Z,26.40
2018-09-12T18:42:57.361Z,26.20
2018-09-12T18:45:26.668Z,25.90
2018-09-12T18:47:55.964Z,25.90
2018-09-12T18:50:25.047Z,25.80
2018-09-12T18:52:54.138Z,25.60
2018-09-12T18:55:23.460Z,25.70
2018-09-12T18:57:52.525Z,25.80
2018-09-12T19:00:21.667Z,25.70
2018-09-12T19:02:50.943Z,25.70
2018-09-12T19:05:19.952Z,25.70
2018-09-12T19:07:49.014Z,25.70
2018-09-12T19:10:18.189Z,25.80
2018-09-12T19:12:47.449Z,25.70
2018-09-12T19:15:16.710Z,25.70
2018-09-12T19:17:45.974Z,25.60
2018-09-12T19:20:15.108Z,25.60
2018-09-12T19:22:44.170Z,25.50
2018-09-12T19:25:13.204Z,25.60
2018-09-12T19:27:42.365Z,25.40
2018-09-12T19:30:11.520Z,25.40
2018-09-12T19:32:40.544Z,25.30
2018-09-12T19:35:09.650Z,25.30
2018-09-12T19:37:38.769Z,25.10
2018-09-12T19:40:08.079Z,25.10
2018-09-12T19:42:37.315Z,25.10
2018-09-12T19:45:06.355Z,25.00
2018-09-12T19:47:35.434Z,24.80
2018-09-12T19:50:04.735Z,24.70
2018-09-12T19:52:33.948Z,24.70
2018-09-12T19:55:03.185Z,24.70
2018-09-12T19:57:32.218Z,24.80
2018-09-12T20:00:01.331Z,24.70
2018-09-12T20:04:34.131Z,24.70
2018-09-12T20:07:03.220Z,24.50
2018-09-12T20:09:32.312Z,24.30
2018-09-12T20:12:01.406Z,24.20
2018-09-12T20:14:30.404Z,24.30
2018-09-12T20:16:59.390Z,23.90
2018-09-12T20:19:28.409Z,23.80
2018-09-12T20:21:57.474Z,23.80
2018-09-12T20:24:26.548Z,23.90
2018-09-12T20:26:55.762Z,24.00
2018-09-12T20:29:23.900Z,24.00
2018-09-12T20:31:53.019Z,23.90
2018-09-12T20:34:22.163Z,23.70
2018-09-12T20:36:51.313Z,23.80
2018-09-12T20:39:20.439Z,23.80
2018-09-12T20:41:49.422Z,23.80
2018-09-12T20:44:18.411Z,23.60
2018-09-12T20:46:47.494Z,23.60
2018-09-12T20:49:16.593Z,23.60
2018-09-12T20:51:45.510Z,23.50
2018-09-12T20:54:15.103Z,23.40
2018-09-12T20:56:43.820Z,23.40
2018-09-12T20:59:12.887Z,23.50
2018-09-12T21:01:41.855Z,23.50
2018-09-12T21:04:09.849Z,23.40
2018-09-12T21:06:37.972Z,23.40
2018-09-12T21:09:07.727Z,23.40
2018-09-12T21:11:35.853Z,23.40
2018-09-12T21:14:04.019Z,23.30
2018-09-12T21:16:32.090Z,23.20
2018-09-12T21:19:00.171Z,23.30
2018-09-12T21:21:28.230Z,23.20
2018-09-12T21:23:56.406Z,23.20
2018-09-12T21:26:24.459Z,23.20
2018-09-12T21:28:52.643Z,23.10
2018-09-12T21:31:20.824Z,23.00
2018-09-12T21:33:48.893Z,23.10
2018-09-12T21:36:16.951Z,23.00
2018-09-12T21:38:45.126Z,22.80
2018-09-12T21:41:13.308Z,22.70
2018-09-12T21:43:41.584Z,22.70
2018-09-12T21:46:09.632Z,22.70
2018-09-12T21:48:37.931Z,22.70
2018-09-12T21:51:06.206Z,22.80
2018-09-12T21:53:34.271Z,22.80
2018-09-12T21:56:02.337Z,22.60
2018-09-12T21:58:30.420Z,22.50
2018-09-12T22:00:58.954Z,22.60
2018-09-12T22:03:27.073Z,22.30
2018-09-12T22:05:55.210Z,22.20
2018-09-12T22:08:23.215Z,22.00
2018-09-12T22:10:51.387Z,22.00
2018-09-12T22:13:19.544Z,22.00
2018-09-12T22:15:47.631Z,21.90
2018-09-12T22:18:15.951Z,22.00
2018-09-12T22:20:44.180Z,21.90
2018-09-12T22:23:12.357Z,21.70
2018-09-12T22:25:40.423Z,21.90
2018-09-12T22:28:08.503Z,21.90
2018-09-12T22:30:36.567Z,21.90
2018-09-12T22:33:04.637Z,22.00
2018-09-12T22:35:32.664Z,21.90
2018-09-12T22:38:00.856Z,21.80
2018-09-12T22:40:28.896Z,21.80
2018-09-12T22:42:57.003Z,21.70
2018-09-12T22:45:26.274Z,21.40
2018-09-12T22:47:54.395Z,21.60
2018-09-12T22:50:22.458Z,21.70
2018-09-12T22:52:50.495Z,21.80
2018-09-12T22:55:18.718Z,21.90
2018-09-12T22:57:46.796Z,21.90
2018-09-12T23:00:14.831Z,21.90
2018-09-12T23:02:42.920Z,21.90
2018-09-12T23:05:10.992Z,21.90
2018-09-12T23:07:39.153Z,21.80
2018-09-12T23:10:07.343Z,21.80
2018-09-12T23:12:36.417Z,21.60
2018-09-12T23:15:05.472Z,21.30
2018-09-12T23:17:34.459Z,21.20
2018-09-12T23:20:03.442Z,21.10
2018-09-12T23:22:32.444Z,21.10
2018-09-12T23:25:01.439Z,21.20
2018-09-12T23:27:30.434Z,21.30
2018-09-12T23:29:59.719Z,21.40
2018-09-12T23:32:28.830Z,21.40
2018-09-12T23:34:56.960Z,21.50
2018-09-12T23:37:25.011Z,21.50
2018-09-12T23:39:53.095Z,21.40
2018-09-12T23:42:21.215Z,21.40
2018-09-12T23:44:49.353Z,21.40
2018-09-12T23:47:17.402Z,21.30
2018-09-12T23:49:45.482Z,21.10
2018-09-12T23:52:13.670Z,21.00
2018-09-12T23:54:41.829Z,20.80
2018-09-12T23:57:09.880Z,20.60
2018-09-12T23:59:37.954Z,20.60
